createdAt,value
2023-01-13T00:01:24.463Z,27.98
2023-01-13T00:03:53.955Z,27.98
2023-01-13T00:06:30.249Z,27.99
2023-01-13T00:08:59.668Z,27.98
2023-01-13T00:11:29.730Z,27.96
2023-01-13T00:13:58.973Z,27.94
2023-01-13T00:16:28.445Z,27.92
2023-01-13T00:19:00.241Z,27.91
2023-01-13T00:21:29.840Z,27.91
2023-01-13T00:23:59.172Z,27.87
2023-01-13T00:26:29.181Z,27.84
2023-01-13T00:29:01.526Z,27.84
2023-01-13T00:31:30.907Z,27.86
2023-01-13T00:34:00.580Z,27.83
2023-01-13T00:36:31.285Z,27.79
2023-01-13T00:39:00.538Z,27.84
2023-01-13T00:41:30.185Z,27.82
2023-01-13T00:43:59.519Z,27.79
2023-01-13T00:46:28.880Z,27.76
2023-01-13T00:48:59.710Z,27.75
2023-01-13T00:51:29.269Z,27.73
2023-01-13T00:53:59.586Z,27.74
2023-01-13T00:56:39.640Z,27.73
2023-01-13T00:58:59.787Z,27.71
2023-01-13T01:01:29.447Z,27.71
2023-01-13T01:03:58.935Z,27.59
2023-01-13T01:06:28.473Z,27.62
2023-01-13T01:08:57.806Z,27.70
2023-01-13T01:11:31.459Z,27.71
2023-01-13T01:14:02.153Z,27.74
2023-01-13T01:16:33.029Z,27.74
2023-01-13T01:19:02.471Z,27.78
2023-01-13T01:21:31.862Z,27.80
2023-01-13T01:24:01.824Z,27.81
2023-01-13T01:26:31.235Z,27.82
2023-01-13T01:29:00.601Z,27.83
2023-01-13T01:31:32.040Z,27.87
2023-01-13T01:34:01.686Z,27.87
2023-01-13T01:36:32.346Z,27.90
2023-01-13T01:39:01.730Z,27.90
2023-01-13T01:41:32.775Z,27.93
2023-01-13T01:44:07.679Z,27.94
2023-01-13T01:46:40.335Z,27.95
2023-01-13T01:49:27.633Z,27.95
2023-01-13T01:52:01.448Z,27.94
2023-01-13T01:54:44.273Z,27.97
2023-01-13T01:57:13.771Z,27.96
2023-01-13T01:59:43.241Z,27.94
2023-01-13T02:02:12.883Z,27.94
2023-01-13T02:04:42.850Z,27.94
2023-01-13T02:07:12.151Z,27.92
2023-01-13T02:09:41.925Z,27.89
2023-01-13T02:12:28.959Z,27.86
2023-01-13T02:15:05.629Z,27.82
2023-01-13T02:17:39.183Z,27.81
2023-01-13T02:20:28.928Z,27.82
2023-01-13T02:23:09.298Z,27.83
2023-01-13T02:25:51.005Z,27.80
2023-01-13T02:28:25.405Z,27.79
2023-01-13T02:31:20.140Z,27.74
2023-01-13T02:33:57.874Z,27.70
2023-01-13T02:36:28.753Z,27.70
2023-01-13T02:38:59.434Z,27.68
2023-01-13T02:41:47.620Z,27.68
2023-01-13T02:44:20.471Z,27.68
2023-01-13T02:46:57.648Z,27.65
2023-01-13T02:49:28.529Z,27.63
2023-01-13T02:51:58.541Z,27.59
2023-01-13T02:54:27.797Z,27.54
2023-01-13T02:56:57.153Z,27.57
2023-01-13T02:59:29.368Z,27.53
2023-01-13T03:02:00.635Z,27.52
2023-01-13T03:04:42.775Z,27.51
2023-01-13T03:07:15.294Z,27.51
2023-01-13T03:09:45.919Z,27.49
2023-01-13T03:12:19.523Z,27.46
2023-01-13T03:14:59.597Z,27.42
2023-01-13T03:17:36.749Z,27.44
2023-01-13T03:20:09.362Z,27.43
2023-01-13T03:22:40.084Z,27.40
2023-01-13T03:25:17.042Z,27.33
2023-01-13T03:27:50.975Z,27.42
2023-01-13T03:30:21.402Z,27.45
2023-01-13T03:32:55.209Z,27.46
2023-01-13T03:35:25.814Z,27.47
2023-01-13T03:37:56.503Z,27.49
2023-01-13T03:40:29.361Z,27.52
2023-01-13T03:43:17.352Z,27.54
2023-01-13T03:45:46.727Z,27.60
2023-01-13T03:48:16.992Z,27.68
2023-01-13T03:50:50.172Z,27.72
2023-01-13T03:53:24.163Z,27.78
2023-01-13T03:55:56.891Z,27.94
2023-01-13T03:58:27.207Z,28.12
2023-01-13T04:01:00.337Z,28.21
2023-01-13T04:03:30.903Z,28.35
2023-01-13T04:06:02.547Z,28.39
2023-01-13T04:08:31.282Z,28.43
2023-01-13T04:11:04.901Z,28.44
2023-01-13T04:13:34.816Z,28.45
2023-01-13T04:16:04.268Z,28.46
2023-01-13T04:18:33.668Z,28.46
2023-01-13T04:21:03.183Z,28.46
2023-01-13T04:23:32.691Z,28.44
2023-01-13T04:26:01.985Z,28.43
2023-01-13T04:28:31.261Z,28.43
2023-01-13T04:31:00.591Z,28.41
2023-01-13T04:33:30.065Z,28.40
2023-01-13T04:35:59.571Z,28.38
2023-01-13T04:38:28.924Z,28.37
2023-01-13T04:40:58.212Z,28.35
2023-01-13T04:43:27.581Z,28.39
2023-01-13T04:45:59.273Z,28.23
2023-01-13T04:48:28.453Z,28.14
2023-01-13T04:50:57.649Z,28.11
2023-01-13T04:53:27.005Z,28.05
2023-01-13T04:55:56.286Z,28.03
2023-01-13T04:58:28.629Z,28.00
2023-01-13T05:00:58.081Z,27.96
2023-01-13T05:03:27.809Z,27.93
2023-01-13T05:05:58.986Z,27.92
2023-01-13T05:08:28.434Z,27.85
2023-01-13T05:10:57.734Z,27.80
2023-01-13T05:13:44.441Z,27.80
2023-01-13T05:16:31.683Z,27.75
2023-01-13T05:19:00.843Z,27.71
2023-01-13T05:21:47.587Z,27.66
2023-01-13T05:24:34.323Z,27.66
2023-01-13T05:27:03.793Z,27.63
2023-01-13T05:29:33.100Z,27.71
2023-01-13T05:32:03.686Z,27.75
2023-01-13T05:34:34.028Z,27.80
2023-01-13T05:37:04.134Z,27.80
2023-01-13T05:39:34.812Z,27.77
2023-01-13T05:42:21.371Z,27.75
2023-01-13T05:44:50.677Z,27.76
2023-01-13T05:47:20.903Z,27.75
2023-01-13T05:49:50.823Z,27.73
2023-01-13T05:52:20.801Z,27.71
2023-01-13T05:54:52.086Z,27.69
2023-01-13T05:57:21.752Z,27.70
2023-01-13T05:59:54.138Z,27.71
2023-01-13T06:02:23.543Z,27.68
2023-01-13T06:04:52.627Z,27.65
2023-01-13T06:07:22.541Z,27.64
2023-01-13T06:09:51.712Z,27.61
2023-01-13T06:12:21.673Z,27.59
2023-01-13T06:14:51.642Z,27.58
2023-01-13T06:17:21.606Z,27.56
2023-01-13T06:19:51.980Z,27.54
2023-01-13T06:22:26.001Z,27.52
2023-01-13T06:24:55.353Z,27.50
2023-01-13T06:27:24.412Z,27.47
2023-01-13T06:29:53.614Z,27.47
2023-01-13T06:32:24.889Z,27.49
2023-01-13T06:34:55.200Z,27.42
2023-01-13T06:37:25.822Z,27.42
2023-01-13T06:40:00.852Z,27.38
2023-01-13T06:42:47.963Z,27.36
2023-01-13T06:45:17.072Z,27.32
2023-01-13T06:47:46.265Z,27.31
2023-01-13T06:50:15.465Z,27.31
2023-01-13T06:52:44.561Z,27.32
2023-01-13T06:55:13.706Z,27.26
2023-01-13T06:57:50.042Z,27.24
2023-01-13T07:00:20.062Z,27.18
2023-01-13T07:02:49.403Z,27.15
2023-01-13T07:05:18.564Z,27.13
2023-01-13T07:07:47.775Z,27.11
2023-01-13T07:10:18.296Z,27.06
2023-01-13T07:13:05.369Z,27.09
2023-01-13T07:15:34.553Z,27.05
2023-01-13T07:18:03.709Z,27.01
2023-01-13T07:20:32.915Z,26.97
2023-01-13T07:23:02.065Z,26.92
2023-01-13T07:25:32.589Z,26.90
2023-01-13T07:28:01.648Z,26.87
2023-01-13T07:30:30.739Z,26.88
2023-01-13T07:33:00.015Z,26.84
2023-01-13T07:35:29.968Z,26.80
2023-01-13T07:37:59.133Z,26.76
2023-01-13T07:40:28.410Z,26.75
2023-01-13T07:43:15.113Z,26.70
2023-01-13T07:45:44.524Z,26.70
2023-01-13T07:48:13.745Z,26.68
2023-01-13T07:50:44.151Z,26.63
2023-01-13T07:53:13.494Z,26.62
2023-01-13T07:55:47.826Z,26.61
2023-01-13T07:58:17.045Z,26.63
2023-01-13T08:00:46.282Z,26.57
2023-01-13T08:03:15.756Z,26.53
2023-01-13T08:05:45.013Z,26.49
2023-01-13T08:08:14.324Z,26.48
2023-01-13T08:10:43.565Z,26.44
2023-01-13T08:13:19.079Z,26.46
2023-01-13T08:15:49.466Z,26.41
2023-01-13T08:18:20.312Z,26.39
2023-01-13T08:20:50.705Z,26.35
2023-01-13T08:23:20.468Z,26.31
2023-01-13T08:25:50.656Z,26.27
2023-01-13T08:28:20.260Z,26.29
2023-01-13T08:30:50.354Z,26.24
2023-01-13T08:33:20.428Z,26.26
2023-01-13T08:35:51.727Z,26.27
2023-01-13T08:38:21.312Z,26.19
2023-01-13T08:40:51.445Z,26.19
2023-01-13T08:43:21.316Z,26.17
2023-01-13T08:46:00.699Z,26.12
2023-01-13T08:48:31.579Z,26.10
2023-01-13T08:51:05.314Z,26.06
2023-01-13T08:53:34.805Z,26.06
2023-01-13T08:56:04.050Z,26.02
2023-01-13T08:58:33.254Z,26.00
2023-01-13T09:01:04.067Z,25.98
2023-01-13T09:03:33.479Z,25.97
2023-01-13T09:06:02.793Z,25.94
2023-01-13T09:08:32.064Z,25.92
2023-01-13T09:11:01.375Z,25.89
2023-01-13T09:13:30.474Z,25.86
2023-01-13T09:15:59.831Z,25.83
2023-01-13T09:18:29.097Z,25.81
2023-01-13T09:20:58.269Z,25.79
2023-01-13T09:23:27.490Z,25.77
2023-01-13T09:25:56.933Z,25.75
2023-01-13T09:28:26.339Z,25.74
2023-01-13T09:30:55.558Z,25.72
2023-01-13T09:33:42.654Z,25.67
2023-01-13T09:36:11.806Z,25.64
2023-01-13T09:38:41.060Z,25.62
2023-01-13T09:41:13.197Z,25.59
2023-01-13T09:43:57.587Z,25.57
2023-01-13T09:46:47.493Z,25.55
2023-01-13T09:49:23.894Z,25.53
2023-01-13T09:51:54.781Z,25.50
2023-01-13T09:54:26.052Z,25.48
2023-01-13T09:56:55.195Z,25.47
2023-01-13T09:59:24.416Z,25.48
2023-01-13T10:01:59.568Z,25.45
2023-01-13T10:04:29.046Z,25.40
2023-01-13T10:06:59.711Z,25.36
2023-01-13T10:09:42.559Z,25.35
2023-01-13T10:12:30.461Z,25.34
2023-01-13T10:14:59.717Z,25.32
2023-01-13T10:17:36.208Z,25.33
2023-01-13T10:20:07.279Z,25.28
2023-01-13T10:22:47.113Z,25.29
2023-01-13T10:25:19.380Z,25.31
2023-01-13T10:27:51.024Z,25.31
2023-01-13T10:30:22.076Z,25.30
2023-01-13T10:33:00.664Z,25.30
2023-01-13T10:35:47.555Z,25.27
2023-01-13T10:38:20.466Z,25.28
2023-01-13T10:40:53.892Z,25.28
2023-01-13T10:43:23.500Z,25.29
2023-01-13T10:45:54.859Z,25.26
2023-01-13T10:48:24.440Z,25.27
2023-01-13T10:50:54.451Z,25.24
2023-01-13T10:53:25.261Z,25.23
2023-01-13T10:56:01.043Z,25.22
2023-01-13T10:58:30.283Z,25.22
2023-01-13T11:01:03.665Z,25.21
2023-01-13T11:03:40.747Z,25.21
2023-01-13T11:06:10.016Z,25.19
2023-01-13T11:08:46.132Z,25.19
2023-01-13T11:11:29.161Z,25.16
2023-01-13T11:14:16.010Z,25.11
2023-01-13T11:16:53.119Z,25.07
2023-01-13T11:19:17.874Z,25.06
2023-01-13T11:21:51.948Z,25.04
2023-01-13T11:24:25.823Z,25.05
2023-01-13T11:26:56.490Z,25.03
2023-01-13T11:29:27.091Z,24.97
2023-01-13T11:31:56.470Z,24.95
2023-01-13T11:34:37.918Z,24.93
2023-01-13T11:37:08.445Z,24.92
2023-01-13T11:39:44.823Z,24.90
2023-01-13T11:42:25.267Z,24.93
2023-01-13T11:44:55.956Z,24.92
2023-01-13T11:47:25.497Z,24.87
2023-01-13T11:49:54.818Z,24.84
2023-01-13T11:52:25.364Z,24.83
2023-01-13T11:55:12.141Z,24.83
2023-01-13T11:57:59.215Z,24.82
2023-01-13T12:00:35.891Z,24.82
2023-01-13T12:03:18.717Z,24.85
2023-01-13T12:05:52.186Z,24.81
2023-01-13T12:08:35.247Z,24.78
2023-01-13T12:11:08.713Z,24.76
2023-01-13T12:13:42.372Z,24.75
2023-01-13T12:16:27.903Z,24.71
2023-01-13T12:19:08.605Z,24.78
2023-01-13T12:21:42.189Z,24.77
2023-01-13T12:24:24.817Z,24.75
2023-01-13T12:26:58.972Z,24.75
2023-01-13T12:29:29.679Z,24.75
2023-01-13T12:31:58.985Z,24.76
2023-01-13T12:34:35.551Z,24.74
2023-01-13T12:37:12.133Z,24.79
2023-01-13T12:39:59.386Z,24.77
2023-01-13T12:43:04.231Z,24.73
2023-01-13T12:45:33.723Z,24.72
2023-01-13T12:48:02.939Z,24.71
2023-01-13T12:50:36.085Z,24.74
2023-01-13T12:53:12.557Z,24.70
2023-01-13T12:55:41.944Z,24.79
2023-01-13T12:58:14.727Z,24.73
2023-01-13T13:00:45.774Z,24.75
2023-01-13T13:03:18.558Z,24.73
2023-01-13T13:05:51.494Z,24.73
2023-01-13T13:08:40.137Z,24.73
2023-01-13T13:11:21.203Z,24.76
2023-01-13T13:13:51.121Z,24.76
2023-01-13T13:16:28.353Z,24.75
2023-01-13T13:19:15.638Z,24.75
2023-01-13T13:22:02.671Z,24.73
2023-01-13T13:24:32.162Z,24.76
2023-01-13T13:27:03.693Z,24.78
2023-01-13T13:29:36.081Z,24.80
2023-01-13T13:32:06.688Z,24.74
2023-01-13T13:34:43.519Z,24.81
2023-01-13T13:37:20.392Z,24.92
2023-01-13T13:40:08.191Z,24.99
2023-01-13T13:42:56.405Z,25.04
2023-01-13T13:45:44.059Z,25.10
2023-01-13T13:48:32.797Z,25.14
2023-01-13T13:51:04.233Z,25.21
2023-01-13T13:53:37.060Z,25.24
2023-01-13T13:56:06.543Z,25.29
2023-01-13T13:58:37.191Z,25.31
2023-01-13T14:01:06.686Z,25.33
2023-01-13T14:03:40.262Z,25.36
2023-01-13T14:06:10.002Z,25.40
2023-01-13T14:08:39.555Z,25.43
2023-01-13T14:11:28.133Z,25.47
2023-01-13T14:14:04.821Z,25.52
2023-01-13T14:16:36.112Z,25.54
2023-01-13T14:19:04.945Z,25.60
2023-01-13T14:21:34.321Z,25.63
2023-01-13T14:24:16.077Z,25.63
2023-01-13T14:26:45.316Z,25.66
2023-01-13T14:29:15.741Z,25.65
2023-01-13T14:31:44.978Z,25.68
2023-01-13T14:34:32.177Z,25.67
2023-01-13T14:36:45.340Z,25.67
2023-01-13T14:39:15.938Z,25.70
2023-01-13T14:41:51.052Z,25.70
2023-01-13T14:44:26.066Z,25.68
2023-01-13T14:46:58.461Z,25.68
2023-01-13T14:49:37.713Z,25.75
2023-01-13T14:52:07.509Z,25.73
2023-01-13T14:54:54.980Z,25.70
2023-01-13T14:57:28.471Z,25.68
2023-01-13T14:59:58.540Z,25.66
2023-01-13T15:02:29.271Z,25.63
2023-01-13T15:05:00.150Z,25.62
2023-01-13T15:07:33.405Z,25.62
2023-01-13T15:10:03.044Z,25.60
2023-01-13T15:12:41.881Z,25.59
2023-01-13T15:15:25.086Z,25.59
2023-01-13T15:17:54.869Z,25.55
2023-01-13T15:20:25.014Z,25.53
2023-01-13T15:22:55.073Z,25.46
2023-01-13T15:25:24.958Z,25.47
2023-01-13T15:27:54.964Z,25.48
2023-01-13T15:30:28.363Z,25.46
2023-01-13T15:32:57.722Z,25.42
2023-01-13T15:35:27.303Z,25.41
2023-01-13T15:37:57.326Z,25.34
2023-01-13T15:40:27.777Z,25.33
2023-01-13T15:43:14.743Z,25.29
2023-01-13T15:46:01.649Z,25.32
2023-01-13T15:48:32.348Z,25.33
2023-01-13T15:51:01.632Z,25.32
2023-01-13T15:53:32.037Z,25.33
2023-01-13T15:56:01.345Z,25.30
2023-01-13T15:58:33.410Z,25.25
2023-01-13T16:01:02.808Z,25.23
2023-01-13T16:03:32.316Z,25.26
2023-01-13T16:06:01.534Z,25.27
2023-01-13T16:08:34.729Z,25.26
2023-01-13T16:11:04.367Z,25.25
2023-01-13T16:13:33.667Z,25.19
2023-01-13T16:16:03.055Z,25.28
2023-01-13T16:18:32.190Z,25.36
2023-01-13T16:21:01.395Z,25.42
2023-01-13T16:23:30.696Z,25.48
2023-01-13T16:25:59.884Z,25.52
2023-01-13T16:28:29.177Z,25.57
2023-01-13T16:30:58.712Z,25.64
2023-01-13T16:33:28.110Z,25.65
2023-01-13T16:36:10.734Z,25.70
2023-01-13T16:38:32.844Z,25.74
2023-01-13T16:41:02.047Z,25.77
2023-01-13T16:43:32.262Z,25.80
2023-01-13T16:46:03.016Z,25.84
2023-01-13T16:48:33.788Z,25.91
2023-01-13T16:51:03.068Z,25.88
2023-01-13T16:53:32.353Z,25.87
2023-01-13T16:56:01.524Z,25.87
2023-01-13T16:58:30.891Z,25.85
2023-01-13T17:01:00.237Z,25.83
2023-01-13T17:03:30.862Z,25.81
2023-01-13T17:06:00.196Z,25.77
2023-01-13T17:08:29.473Z,25.77
2023-01-13T17:10:58.803Z,25.77
2023-01-13T17:13:28.188Z,25.75
2023-01-13T17:15:57.412Z,25.75
2023-01-13T17:18:26.633Z,25.74
2023-01-13T17:20:55.934Z,25.71
2023-01-13T17:23:25.218Z,25.70
2023-01-13T17:25:55.596Z,25.67
2023-01-13T17:28:25.854Z,25.64
2023-01-13T17:30:55.269Z,25.64
2023-01-13T17:33:25.414Z,25.64
2023-01-13T17:35:55.423Z,25.64
2023-01-13T17:38:25.220Z,25.63
2023-01-13T17:40:55.213Z,25.63
2023-01-13T17:43:26.288Z,25.61
2023-01-13T17:45:55.509Z,25.62
2023-01-13T17:48:24.716Z,25.59
2023-01-13T17:50:54.629Z,25.55
2023-01-13T17:53:24.594Z,25.54
2023-01-13T17:55:54.660Z,25.55
2023-01-13T17:58:24.571Z,25.53
2023-01-13T18:00:54.481Z,25.55
2023-01-13T18:03:24.534Z,25.54
2023-01-13T18:05:53.921Z,25.55
2023-01-13T18:08:24.597Z,25.56
2023-01-13T18:10:55.630Z,25.51
2023-01-13T18:13:25.527Z,25.61
2023-01-13T18:16:09.061Z,25.64
2023-01-13T18:18:38.291Z,25.69
2023-01-13T18:21:17.853Z,25.75
2023-01-13T18:24:04.586Z,25.80
2023-01-13T18:26:51.274Z,25.85
2023-01-13T18:29:20.779Z,25.90
2023-01-13T18:31:50.064Z,25.96
2023-01-13T18:34:19.300Z,26.02
2023-01-13T18:36:48.643Z,26.06
2023-01-13T18:39:17.904Z,26.04
2023-01-13T18:42:05.606Z,26.04
2023-01-13T18:44:34.978Z,26.05
2023-01-13T18:47:04.174Z,26.03
2023-01-13T18:49:33.356Z,26.03
2023-01-13T18:52:02.692Z,26.03
2023-01-13T18:54:31.952Z,26.02
2023-01-13T18:57:02.593Z,26.01
2023-01-13T18:59:33.576Z,26.01
2023-01-13T19:02:03.283Z,26.01
2023-01-13T19:04:33.450Z,26.00
2023-01-13T19:07:02.737Z,25.99
2023-01-13T19:09:31.938Z,26.00
2023-01-13T19:12:02.102Z,26.00
2023-01-13T19:14:38.482Z,26.00
2023-01-13T19:17:09.712Z,26.00
2023-01-13T19:19:42.296Z,25.99
2023-01-13T19:22:12.191Z,26.03
2023-01-13T19:24:44.573Z,26.01
2023-01-13T19:27:16.680Z,26.02
2023-01-13T19:29:50.760Z,26.01
2023-01-13T19:32:19.658Z,26.02
2023-01-13T19:34:50.274Z,26.04
2023-01-13T19:37:21.107Z,26.02
2023-01-13T19:39:50.390Z,26.03
2023-01-13T19:42:37.026Z,26.03
2023-01-13T19:45:24.271Z,26.05
2023-01-13T19:47:53.795Z,26.05
2023-01-13T19:50:24.105Z,26.09
2023-01-13T19:52:54.091Z,26.15
2023-01-13T19:55:23.908Z,26.12
2023-01-13T19:57:53.956Z,26.13
2023-01-13T20:00:24.742Z,26.18
2023-01-13T20:02:56.167Z,26.19
2023-01-13T20:05:27.076Z,26.20
2023-01-13T20:07:57.792Z,26.17
2023-01-13T20:10:27.002Z,26.18
2023-01-13T20:12:56.262Z,26.21
2023-01-13T20:15:25.837Z,26.19
2023-01-13T20:17:55.684Z,26.20
2023-01-13T20:20:26.984Z,26.18
2023-01-13T20:22:57.686Z,26.21
2023-01-13T20:25:28.901Z,26.23
2023-01-13T20:27:58.293Z,26.22
2023-01-13T20:30:27.589Z,26.24
2023-01-13T20:32:56.786Z,26.26
2023-01-13T20:35:27.405Z,26.28
2023-01-13T20:37:56.771Z,26.28
2023-01-13T20:40:25.935Z,26.25
2023-01-13T20:42:55.755Z,26.27
2023-01-13T20:45:27.083Z,26.28
2023-01-13T20:47:57.050Z,26.29
2023-01-13T20:50:26.164Z,26.30
2023-01-13T20:52:55.875Z,26.28
2023-01-13T20:55:25.797Z,26.31
2023-01-13T20:57:55.809Z,26.31
2023-01-13T21:00:25.831Z,26.31
2023-01-13T21:02:55.749Z,26.37
2023-01-13T21:05:25.731Z,26.37
2023-01-13T21:07:57.237Z,26.35
2023-01-13T21:10:26.423Z,26.36
2023-01-13T21:13:13.720Z,26.36
2023-01-13T21:15:43.091Z,26.38
2023-01-13T21:18:29.867Z,26.40
2023-01-13T21:21:00.493Z,26.41
2023-01-13T21:23:29.754Z,26.44
2023-01-13T21:25:58.917Z,26.44
2023-01-13T21:28:28.203Z,26.50
2023-01-13T21:30:57.547Z,26.47
2023-01-13T21:33:26.879Z,26.49
2023-01-13T21:35:57.637Z,26.50
2023-01-13T21:38:29.029Z,26.55
2023-01-13T21:41:00.324Z,26.55
2023-01-13T21:43:47.214Z,26.57
2023-01-13T21:46:34.221Z,26.57
2023-01-13T21:49:06.356Z,26.63
2023-01-13T21:51:35.891Z,26.66
2023-01-13T21:54:05.153Z,26.63
2023-01-13T21:56:34.636Z,26.66
2023-01-13T21:59:03.865Z,26.65
2023-01-13T22:01:33.403Z,26.67
2023-01-13T22:04:14.761Z,26.68
2023-01-13T22:06:44.045Z,26.67
2023-01-13T22:09:13.772Z,26.71
2023-01-13T22:11:42.849Z,26.73
2023-01-13T22:14:12.040Z,26.74
2023-01-13T22:16:42.978Z,26.76
2023-01-13T22:19:12.324Z,26.79
2023-01-13T22:21:41.880Z,26.79
2023-01-13T22:24:11.211Z,26.80
2023-01-13T22:26:40.403Z,26.81
2023-01-13T22:29:12.326Z,26.85
2023-01-13T22:31:41.710Z,26.83
2023-01-13T22:34:12.329Z,26.88
2023-01-13T22:36:41.616Z,26.88
2023-01-13T22:39:11.205Z,26.88
2023-01-13T22:41:40.467Z,26.89
2023-01-13T22:44:09.641Z,26.92
2023-01-13T22:46:38.865Z,26.90
2023-01-13T22:49:08.175Z,26.92
2023-01-13T22:51:37.339Z,26.93
2023-01-13T22:54:06.760Z,26.96
2023-01-13T22:56:35.992Z,26.94
2023-01-13T22:59:05.460Z,26.98
2023-01-13T23:01:35.349Z,26.98
2023-01-13T23:04:04.665Z,27.00
2023-01-13T23:06:34.320Z,27.00
2023-01-13T23:09:03.629Z,27.01
2023-01-13T23:11:32.889Z,26.99
2023-01-13T23:14:03.450Z,27.00
2023-01-13T23:16:32.828Z,27.02
2023-01-13T23:19:02.048Z,27.04
2023-01-13T23:21:31.846Z,27.03
2023-01-13T23:24:01.211Z,27.02
2023-01-13T23:29:18.071Z,26.99
2023-01-13T23:31:47.225Z,26.99
2023-01-13T23:34:16.494Z,26.99
2023-01-13T23:36:45.747Z,26.96
2023-01-13T23:39:15.350Z,26.94
2023-01-13T23:41:48.994Z,26.92
2023-01-13T23:44:17.586Z,26.91
2023-01-13T23:46:46.844Z,26.88
2023-01-13T23:49:16.159Z,26.88
2023-01-13T23:51:45.427Z,26.88
2023-01-13T23:54:14.705Z,26.85
2023-01-13T23:56:43.865Z,26.82
2023-01-13T23:59:13.141Z,26.83
